sensor_id;sensor_type;location;lat;lon;timestamp;P1;durP1;ratioP1;P2;durP2;ratioP2
20144;SDS011;10233;50.814;6.590;2022-08-02T00:00:06;4.53;;;2.70;;
20144;SDS011;10233;50.814;6.590;2022-08-02T00:01:07;4.95;;;2.60;;
20144;SDS011;10233;50.814;6.590;2022-08-02T00:02:08;5.20;;;2.33;;
20144;SDS011;10233;50.814;6.590;2022-08-02T00:03:08;6.33;;;2.57;;
20144;SDS011;10233;50.814;6.590;2022-08-02T00:04:09;3.38;;;2.20;;
20144;SDS011;10233;50.814;6.590;2022-08-02T00:05:10;6.83;;;2.40;;
20144;SDS011;10233;50.814;6.590;2022-08-02T00:06:11;3.50;;;2.53;;
20144;SDS011;10233;50.814;6.590;2022-08-02T00:07:12;4.15;;;2.38;;
20144;SDS011;10233;50.814;6.590;2022-08-02T00:08:14;7.30;;;2.67;;
20144;SDS011;10233;50.814;6.590;2022-08-02T00:09:15;5.80;;;2.70;;
20144;SDS011;10233;50.814;6.590;2022-08-02T00:10:15;4.78;;;2.47;;
20144;SDS011;10233;50.814;6.590;2022-08-02T00:11:16;3.70;;;2.23;;
20144;SDS011;10233;50.814;6.590;2022-08-02T00:12:16;4.82;;;2.40;;
20144;SDS011;10233;50.814;6.590;2022-08-02T00:13:17;3.70;;;2.53;;
20144;SDS011;10233;50.814;6.590;2022-08-02T00:14:17;4.50;;;2.58;;
20144;SDS011;10233;50.814;6.590;2022-08-02T00:15:18;3.90;;;2.13;;
20144;SDS011;10233;50.814;6.590;2022-08-02T00:16:18;4.70;;;2.80;;
20144;SDS011;10233;50.814;6.590;2022-08-02T00:17:19;6.25;;;2.80;;
20144;SDS011;10233;50.814;6.590;2022-08-02T00:18:20;4.00;;;2.30;;
20144;SDS011;10233;50.814;6.590;2022-08-02T00:19:23;4.32;;;2.40;;
20144;SDS011;10233;50.814;6.590;2022-08-02T00:20:24;5.10;;;2.80;;
20144;SDS011;10233;50.814;6.590;2022-08-02T00:21:24;3.60;;;2.40;;
20144;SDS011;10233;50.814;6.590;2022-08-02T00:22:25;4.70;;;2.67;;
20144;SDS011;10233;50.814;6.590;2022-08-02T00:23:25;4.43;;;3.00;;
20144;SDS011;10233;50.814;6.590;2022-08-02T00:24:25;4.63;;;2.38;;
20144;SDS011;10233;50.814;6.590;2022-08-02T00:25:26;3.73;;;2.53;;
20144;SDS011;10233;50.814;6.590;2022-08-02T00:26:27;4.88;;;2.28;;
20144;SDS011;10233;50.814;6.590;2022-08-02T00:27:27;4.50;;;2.30;;
20144;SDS011;10233;50.814;6.590;2022-08-02T00:28:28;3.92;;;2.45;;
20144;SDS011;10233;50.814;6.590;2022-08-02T00:29:29;2.90;;;2.10;;
20144;SDS011;10233;50.814;6.590;2022-08-02T00:30:30;6.20;;;2.90;;
20144;SDS011;10233;50.814;6.590;2022-08-02T00:31:30;5.37;;;2.73;;
20144;SDS011;10233;50.814;6.590;2022-08-02T00:32:31;3.90;;;2.40;;
20144;SDS011;10233;50.814;6.590;2022-08-02T00:33:31;5.17;;;2.70;;
20144;SDS011;10233;50.814;6.590;2022-08-02T00:34:32;3.70;;;2.60;;
20144;SDS011;10233;50.814;6.590;2022-08-02T00:35:33;4.82;;;2.67;;
20144;SDS011;10233;50.814;6.590;2022-08-02T00:36:34;3.28;;;2.40;;
20144;SDS011;10233;50.814;6.590;2022-08-02T00:37:37;3.03;;;2.40;;
20144;SDS011;10233;50.814;6.590;2022-08-02T00:38:38;3.85;;;2.30;;
20144;SDS011;10233;50.814;6.590;2022-08-02T00:39:39;4.88;;;2.38;;
20144;SDS011;10233;50.814;6.590;2022-08-02T00:40:45;3.45;;;2.38;;
20144;SDS011;10233;50.814;6.590;2022-08-02T00:41:48;4.25;;;2.53;;
20144;SDS011;10233;50.814;6.590;2022-08-02T00:43:05;5.07;;;2.67;;
20144;SDS011;10233;50.814;6.590;2022-08-02T00:44:07;4.55;;;2.45;;
20144;SDS011;10233;50.814;6.590;2022-08-02T00:45:07;3.67;;;2.40;;
20144;SDS011;10233;50.814;6.590;2022-08-02T00:46:08;4.97;;;2.50;;
20144;SDS011;10233;50.814;6.590;2022-08-02T00:47:09;3.75;;;2.55;;
20144;SDS011;10233;50.814;6.590;2022-08-02T00:48:10;4.43;;;2.60;;
20144;SDS011;10233;50.814;6.590;2022-08-02T00:49:11;4.47;;;2.55;;
20144;SDS011;10233;50.814;6.590;2022-08-02T00:50:13;6.03;;;2.50;;
20144;SDS011;10233;50.814;6.590;2022-08-02T00:51:14;6.13;;;2.60;;
20144;SDS011;10233;50.814;6.590;2022-08-02T00:52:15;5.63;;;2.60;;
20144;SDS011;10233;50.814;6.590;2022-08-02T00:53:15;4.30;;;2.58;;
20144;SDS011;10233;50.814;6.590;2022-08-02T00:54:16;5.18;;;2.70;;
20144;SDS011;10233;50.814;6.590;2022-08-02T00:55:17;4.60;;;2.60;;
20144;SDS011;10233;50.814;6.590;2022-08-02T00:56:17;3.30;;;2.42;;
20144;SDS011;10233;50.814;6.590;2022-08-02T00:57:18;2.93;;;2.17;;
20144;SDS011;10233;50.814;6.590;2022-08-02T00:58:18;3.30;;;2.10;;
20144;SDS011;10233;50.814;6.590;2022-08-02T00:59:19;3.57;;;2.40;;
20144;SDS011;10233;50.814;6.590;2022-08-02T01:00:20;5.20;;;2.30;;
20144;SDS011;10233;50.814;6.590;2022-08-02T01:01:21;5.25;;;2.60;;
20144;SDS011;10233;50.814;6.590;2022-08-02T01:02:37;4.18;;;2.40;;
20144;SDS011;10233;50.814;6.590;2022-08-02T01:03:37;4.30;;;2.67;;
20144;SDS011;10233;50.814;6.590;2022-08-02T01:04:38;2.90;;;2.20;;
20144;SDS011;10233;50.814;6.590;2022-08-02T01:05:38;3.00;;;2.20;;
20144;SDS011;10233;50.814;6.590;2022-08-02T01:06:40;11.13;;;2.77;;
20144;SDS011;10233;50.814;6.590;2022-08-02T01:07:41;3.45;;;2.47;;
20144;SDS011;10233;50.814;6.590;2022-08-02T01:08:42;3.27;;;2.40;;
20144;SDS011;10233;50.814;6.590;2022-08-02T01:09:43;4.90;;;2.50;;
20144;SDS011;10233;50.814;6.590;2022-08-02T01:10:44;3.83;;;2.50;;
20144;SDS011;10233;50.814;6.590;2022-08-02T01:11:45;3.45;;;2.40;;
20144;SDS011;10233;50.814;6.590;2022-08-02T01:12:45;4.43;;;2.55;;
20144;SDS011;10233;50.814;6.590;2022-08-02T01:13:46;3.92;;;2.50;;
20144;SDS011;10233;50.814;6.590;2022-08-02T01:14:51;3.97;;;2.80;;
20144;SDS011;10233;50.814;6.590;2022-08-02T01:15:57;4.87;;;2.67;;
20144;SDS011;10233;50.814;6.590;2022-08-02T01:18:22;5.18;;;2.92;;
20144;SDS011;10233;50.814;6.590;2022-08-02T01:19:36;4.65;;;2.70;;
20144;SDS011;10233;50.814;6.590;2022-08-02T01:21:00;4.55;;;2.90;;
20144;SDS011;10233;50.814;6.590;2022-08-02T01:26:01;4.93;;;2.97;;
20144;SDS011;10233;50.814;6.590;2022-08-02T01:28:35;4.45;;;2.60;;
20144;SDS011;10233;50.814;6.590;2022-08-02T01:29:42;4.80;;;2.80;;
20144;SDS011;10233;50.814;6.590;2022-08-02T01:30:48;4.30;;;2.45;;
20144;SDS011;10233;50.814;6.590;2022-08-02T01:32:59;6.82;;;2.67;;
20144;SDS011;10233;50.814;6.590;2022-08-02T01:34:05;7.53;;;2.50;;
20144;SDS011;10233;50.814;6.590;2022-08-02T01:35:21;3.97;;;2.65;;
20144;SDS011;10233;50.814;6.590;2022-08-02T01:36:28;3.67;;;2.60;;
20144;SDS011;10233;50.814;6.590;2022-08-02T01:38:48;3.83;;;2.40;;
20144;SDS011;10233;50.814;6.590;2022-08-02T01:39:53;2.72;;;2.20;;
20144;SDS011;10233;50.814;6.590;2022-08-02T01:40:57;5.95;;;2.92;;
20144;SDS011;10233;50.814;6.590;2022-08-02T01:42:01;3.72;;;2.50;;
20144;SDS011;10233;50.814;6.590;2022-08-02T01:43:03;4.70;;;2.50;;
20144;SDS011;10233;50.814;6.590;2022-08-02T01:44:06;5.25;;;2.80;;
20144;SDS011;10233;50.814;6.590;2022-08-02T01:45:08;4.03;;;2.40;;
20144;SDS011;10233;50.814;6.590;2022-08-02T01:46:12;3.42;;;2.28;;
20144;SDS011;10233;50.814;6.590;2022-08-02T01:47:18;4.78;;;2.50;;
20144;SDS011;10233;50.814;6.590;2022-08-02T01:48:22;3.33;;;2.30;;
20144;SDS011;10233;50.814;6.590;2022-08-02T01:49:25;4.80;;;2.40;;
20144;SDS011;10233;50.814;6.590;2022-08-02T01:50:30;3.45;;;2.58;;
20144;SDS011;10233;50.814;6.590;2022-08-02T01:51:33;4.70;;;2.30;;
20144;SDS011;10233;50.814;6.590;2022-08-02T01:53:08;3.92;;;2.72;;
20144;SDS011;10233;50.814;6.590;2022-08-02T01:54:13;4.15;;;2.67;;
20144;SDS011;10233;50.814;6.590;2022-08-02T01:55:23;3.45;;;2.40;;
20144;SDS011;10233;50.814;6.590;2022-08-02T01:56:27;2.58;;;2.28;;
20144;SDS011;10233;50.814;6.590;2022-08-02T01:57:29;4.70;;;2.60;;
20144;SDS011;10233;50.814;6.590;2022-08-02T01:58:35;3.63;;;2.40;;
20144;SDS011;10233;50.814;6.590;2022-08-02T01:59:38;4.20;;;2.70;;
20144;SDS011;10233;50.814;6.590;2022-08-02T02:00:42;3.75;;;2.38;;
20144;SDS011;10233;50.814;6.590;2022-08-02T02:01:44;6.45;;;2.30;;
20144;SDS011;10233;50.814;6.590;2022-08-02T02:02:48;4.50;;;2.30;;
20144;SDS011;10233;50.814;6.590;2022-08-02T02:03:51;5.13;;;2.50;;
20144;SDS011;10233;50.814;6.590;2022-08-02T02:04:52;6.20;;;2.63;;
20144;SDS011;10233;50.814;6.590;2022-08-02T02:05:57;4.25;;;2.53;;
20144;SDS011;10233;50.814;6.590;2022-08-02T02:07:01;3.80;;;2.50;;
20144;SDS011;10233;50.814;6.590;2022-08-02T02:08:03;4.03;;;2.50;;
20144;SDS011;10233;50.814;6.590;2022-08-02T02:09:05;4.95;;;2.60;;
20144;SDS011;10233;50.814;6.590;2022-08-02T02:10:06;3.70;;;2.53;;
20144;SDS011;10233;50.814;6.590;2022-08-02T02:11:11;3.53;;;2.40;;
20144;SDS011;10233;50.814;6.590;2022-08-02T02:12:12;3.90;;;2.40;;
20144;SDS011;10233;50.814;6.590;2022-08-02T02:13:13;4.43;;;2.38;;
20144;SDS011;10233;50.814;6.590;2022-08-02T02:14:16;4.07;;;2.63;;
20144;SDS011;10233;50.814;6.590;2022-08-02T02:15:17;3.42;;;2.70;;
20144;SDS011;10233;50.814;6.590;2022-08-02T02:16:19;4.25;;;2.50;;
20144;SDS011;10233;50.814;6.590;2022-08-02T02:17:21;3.78;;;2.42;;
20144;SDS011;10233;50.814;6.590;2022-08-02T02:18:24;4.75;;;2.53;;
20144;SDS011;10233;50.814;6.590;2022-08-02T02:19:27;3.13;;;2.20;;
20144;SDS011;10233;50.814;6.590;2022-08-02T02:20:28;6.68;;;2.45;;
20144;SDS011;10233;50.814;6.590;2022-08-02T02:21:29;3.85;;;2.58;;
20144;SDS011;10233;50.814;6.590;2022-08-02T02:22:30;4.23;;;2.73;;
20144;SDS011;10233;50.814;6.590;2022-08-02T02:23:31;4.70;;;2.60;;
20144;SDS011;10233;50.814;6.590;2022-08-02T02:24:32;4.83;;;2.57;;
20144;SDS011;10233;50.814;6.590;2022-08-02T02:25:33;3.22;;;2.33;;
20144;SDS011;10233;50.814;6.590;2022-08-02T02:26:35;4.00;;;2.65;;
20144;SDS011;10233;50.814;6.590;2022-08-02T02:27:38;3.15;;;2.53;;
20144;SDS011;10233;50.814;6.590;2022-08-02T02:28:45;3.85;;;2.65;;
20144;SDS011;10233;50.814;6.590;2022-08-02T02:29:47;3.75;;;2.60;;
20144;SDS011;10233;50.814;6.590;2022-08-02T02:30:51;3.90;;;2.65;;
20144;SDS011;10233;50.814;6.590;2022-08-02T02:31:59;4.13;;;2.75;;
20144;SDS011;10233;50.814;6.590;2022-08-02T02:33:01;4.57;;;2.60;;
20144;SDS011;10233;50.814;6.590;2022-08-02T02:34:05;3.53;;;2.63;;
20144;SDS011;10233;50.814;6.590;2022-08-02T02:35:09;4.75;;;2.60;;
20144;SDS011;10233;50.814;6.590;2022-08-02T02:36:13;4.20;;;2.65;;
20144;SDS011;10233;50.814;6.590;2022-08-02T02:37:20;4.30;;;2.72;;
20144;SDS011;10233;50.814;6.590;2022-08-02T02:38:22;3.75;;;2.70;;
20144;SDS011;10233;50.814;6.590;2022-08-02T02:39:26;4.25;;;2.63;;
20144;SDS011;10233;50.814;6.590;2022-08-02T02:40:28;4.13;;;2.92;;
20144;SDS011;10233;50.814;6.590;2022-08-02T02:41:28;4.03;;;2.78;;
20144;SDS011;10233;50.814;6.590;2022-08-02T02:42:29;4.93;;;2.80;;
20144;SDS011;10233;50.814;6.590;2022-08-02T02:43:32;5.85;;;2.83;;
20144;SDS011;10233;50.814;6.590;2022-08-02T02:44:34;4.60;;;2.90;;
20144;SDS011;10233;50.814;6.590;2022-08-02T02:45:35;4.67;;;2.70;;
20144;SDS011;10233;50.814;6.590;2022-08-02T02:46:38;3.83;;;2.70;;
20144;SDS011;10233;50.814;6.590;2022-08-02T02:47:40;3.35;;;2.70;;
20144;SDS011;10233;50.814;6.590;2022-08-02T02:48:41;5.63;;;2.60;;
20144;SDS011;10233;50.814;6.590;2022-08-02T02:49:43;3.77;;;2.80;;
20144;SDS011;10233;50.814;6.590;2022-08-02T02:50:45;5.40;;;3.00;;
20144;SDS011;10233;50.814;6.590;2022-08-02T02:51:46;4.80;;;3.08;;
20144;SDS011;10233;50.814;6.590;2022-08-02T02:52:48;5.45;;;2.85;;
20144;SDS011;10233;50.814;6.590;2022-08-02T02:53:50;4.57;;;2.90;;
20144;SDS011;10233;50.814;6.590;2022-08-02T02:54:51;3.80;;;2.85;;
20144;SDS011;10233;50.814;6.590;2022-08-02T02:55:54;6.43;;;2.97;;
20144;SDS011;10233;50.814;6.590;2022-08-02T02:56:55;3.95;;;2.65;;
20144;SDS011;10233;50.814;6.590;2022-08-02T02:57:57;3.50;;;2.80;;
20144;SDS011;10233;50.814;6.590;2022-08-02T02:58:58;5.93;;;2.90;;
20144;SDS011;10233;50.814;6.590;2022-08-02T03:00:00;5.20;;;2.83;;
20144;SDS011;10233;50.814;6.590;2022-08-02T03:01:01;5.82;;;2.72;;
20144;SDS011;10233;50.814;6.590;2022-08-02T03:02:22;3.10;;;2.55;;
20144;SDS011;10233;50.814;6.590;2022-08-02T03:03:23;4.53;;;2.87;;
20144;SDS011;10233;50.814;6.590;2022-08-02T03:04:26;4.25;;;3.00;;
20144;SDS011;10233;50.814;6.590;2022-08-02T03:05:28;7.82;;;3.20;;
20144;SDS011;10233;50.814;6.590;2022-08-02T03:06:28;5.53;;;2.73;;
20144;SDS011;10233;50.814;6.590;2022-08-02T03:07:31;4.82;;;3.15;;
20144;SDS011;10233;50.814;6.590;2022-08-02T03:08:32;6.93;;;2.83;;
20144;SDS011;10233;50.814;6.590;2022-08-02T03:09:33;5.35;;;3.08;;
20144;SDS011;10233;50.814;6.590;2022-08-02T03:10:33;3.27;;;2.87;;
20144;SDS011;10233;50.814;6.590;2022-08-02T03:11:34;4.97;;;3.20;;
20144;SDS011;10233;50.814;6.590;2022-08-02T03:12:36;6.20;;;3.10;;
20144;SDS011;10233;50.814;6.590;2022-08-02T03:13:37;5.43;;;3.40;;
20144;SDS011;10233;50.814;6.590;2022-08-02T03:14:39;4.45;;;3.10;;
20144;SDS011;10233;50.814;6.590;2022-08-02T03:15:42;6.07;;;2.90;;
20144;SDS011;10233;50.814;6.590;2022-08-02T03:16:46;5.80;;;3.10;;
20144;SDS011;10233;50.814;6.590;2022-08-02T03:17:48;5.25;;;2.90;;
20144;SDS011;10233;50.814;6.590;2022-08-02T03:18:48;5.75;;;3.05;;
20144;SDS011;10233;50.814;6.590;2022-08-02T03:19:49;5.07;;;3.00;;
20144;SDS011;10233;50.814;6.590;2022-08-02T03:20:49;6.90;;;3.10;;
20144;SDS011;10233;50.814;6.590;2022-08-02T03:21:50;5.95;;;2.80;;
20144;SDS011;10233;50.814;6.590;2022-08-02T03:22:51;4.43;;;2.85;;
20144;SDS011;10233;50.814;6.590;2022-08-02T03:23:51;3.77;;;2.83;;
20144;SDS011;10233;50.814;6.590;2022-08-02T03:24:52;3.72;;;2.67;;
20144;SDS011;10233;50.814;6.590;2022-08-02T03:25:52;3.87;;;2.90;;
20144;SDS011;10233;50.814;6.590;2022-08-02T03:26:53;5.00;;;2.88;;
20144;SDS011;10233;50.814;6.590;2022-08-02T03:27:53;4.67;;;3.00;;
20144;SDS011;10233;50.814;6.590;2022-08-02T03:28:53;5.90;;;2.97;;
20144;SDS011;10233;50.814;6.590;2022-08-02T03:29:54;4.60;;;3.30;;
20144;SDS011;10233;50.814;6.590;2022-08-02T03:30:54;4.17;;;3.00;;
20144;SDS011;10233;50.814;6.590;2022-08-02T03:31:55;7.38;;;3.35;;
20144;SDS011;10233;50.814;6.590;2022-08-02T03:32:56;4.85;;;3.15;;
20144;SDS011;10233;50.814;6.590;2022-08-02T03:33:58;3.80;;;3.10;;
20144;SDS011;10233;50.814;6.590;2022-08-02T03:34:59;3.47;;;2.97;;
20144;SDS011;10233;50.814;6.590;2022-08-02T03:36:01;4.80;;;3.30;;
20144;SDS011;10233;50.814;6.590;2022-08-02T03:37:05;4.43;;;3.30;;
20144;SDS011;10233;50.814;6.590;2022-08-02T03:38:06;6.33;;;2.90;;
20144;SDS011;10233;50.814;6.590;2022-08-02T03:39:07;5.05;;;3.30;;
20144;SDS011;10233;50.814;6.590;2022-08-02T03:40:11;5.65;;;3.50;;
20144;SDS011;10233;50.814;6.590;2022-08-02T03:41:13;6.35;;;3.35;;
20144;SDS011;10233;50.814;6.590;2022-08-02T03:42:16;5.03;;;3.20;;
20144;SDS011;10233;50.814;6.590;2022-08-02T03:43:18;5.45;;;3.42;;
20144;SDS011;10233;50.814;6.590;2022-08-02T03:44:19;4.35;;;3.33;;
20144;SDS011;10233;50.814;6.590;2022-08-02T03:45:20;4.90;;;3.30;;
20144;SDS011;10233;50.814;6.590;2022-08-02T03:46:22;6.00;;;3.30;;
20144;SDS011;10233;50.814;6.590;2022-08-02T03:47:23;4.90;;;3.70;;
20144;SDS011;10233;50.814;6.590;2022-08-02T03:48:26;5.45;;;3.35;;
20144;SDS011;10233;50.814;6.590;2022-08-02T03:49:28;5.78;;;3.33;;
20144;SDS011;10233;50.814;6.590;2022-08-02T03:50:31;4.20;;;3.20;;
20144;SDS011;10233;50.814;6.590;2022-08-02T03:51:34;4.20;;;3.15;;
20144;SDS011;10233;50.814;6.590;2022-08-02T03:52:35;3.70;;;2.80;;
20144;SDS011;10233;50.814;6.590;2022-08-02T03:53:36;5.20;;;2.92;;
20144;SDS011;10233;50.814;6.590;2022-08-02T03:54:37;6.55;;;3.20;;
20144;SDS011;10233;50.814;6.590;2022-08-02T03:55:38;5.57;;;3.33;;
20144;SDS011;10233;50.814;6.590;2022-08-02T03:56:39;4.65;;;3.42;;
20144;SDS011;10233;50.814;6.590;2022-08-02T03:57:40;6.82;;;3.33;;
20144;SDS011;10233;50.814;6.590;2022-08-02T03:58:41;5.90;;;3.38;;
20144;SDS011;10233;50.814;6.590;2022-08-02T03:59:43;3.63;;;3.17;;
20144;SDS011;10233;50.814;6.590;2022-08-02T04:00:45;5.13;;;3.50;;
20144;SDS011;10233;50.814;6.590;2022-08-02T04:01:46;5.03;;;3.25;;
20144;SDS011;10233;50.814;6.590;2022-08-02T04:02:47;5.10;;;3.30;;
20144;SDS011;10233;50.814;6.590;2022-08-02T04:03:48;6.43;;;3.40;;
20144;SDS011;10233;50.814;6.590;2022-08-02T04:04:49;5.65;;;3.80;;
20144;SDS011;10233;50.814;6.590;2022-08-02T04:05:49;5.20;;;3.43;;
20144;SDS011;10233;50.814;6.590;2022-08-02T04:06:50;4.07;;;3.45;;
20144;SDS011;10233;50.814;6.590;2022-08-02T04:07:51;9.02;;;3.40;;
20144;SDS011;10233;50.814;6.590;2022-08-02T04:08:54;4.67;;;3.53;;
20144;SDS011;10233;50.814;6.590;2022-08-02T04:09:54;4.25;;;3.15;;
20144;SDS011;10233;50.814;6.590;2022-08-02T04:10:55;7.53;;;3.33;;
20144;SDS011;10233;50.814;6.590;2022-08-02T04:12:14;6.68;;;3.50;;
20144;SDS011;10233;50.814;6.590;2022-08-02T04:13:15;4.83;;;3.00;;
20144;SDS011;10233;50.814;6.590;2022-08-02T04:14:15;4.97;;;3.33;;
20144;SDS011;10233;50.814;6.590;2022-08-02T04:15:16;5.57;;;3.10;;
20144;SDS011;10233;50.814;6.590;2022-08-02T04:16:20;5.70;;;3.45;;
20144;SDS011;10233;50.814;6.590;2022-08-02T04:17:22;5.22;;;3.88;;
20144;SDS011;10233;50.814;6.590;2022-08-02T04:18:24;6.70;;;3.45;;
20144;SDS011;10233;50.814;6.590;2022-08-02T04:19:37;6.30;;;3.42;;
20144;SDS011;10233;50.814;6.590;2022-08-02T04:20:42;6.90;;;3.53;;
20144;SDS011;10233;50.814;6.590;2022-08-02T04:21:46;5.63;;;3.50;;
20144;SDS011;10233;50.814;6.590;2022-08-02T04:23:06;4.88;;;3.50;;
20144;SDS011;10233;50.814;6.590;2022-08-02T04:24:09;5.32;;;3.42;;
20144;SDS011;10233;50.814;6.590;2022-08-02T04:25:10;5.85;;;3.67;;
20144;SDS011;10233;50.814;6.590;2022-08-02T04:26:11;5.68;;;3.33;;
20144;SDS011;10233;50.814;6.590;2022-08-02T04:27:12;5.97;;;3.42;;
20144;SDS011;10233;50.814;6.590;2022-08-02T04:28:15;5.63;;;3.67;;
20144;SDS011;10233;50.814;6.590;2022-08-02T04:29:16;4.55;;;3.50;;
20144;SDS011;10233;50.814;6.590;2022-08-02T04:30:18;6.13;;;3.65;;
20144;SDS011;10233;50.814;6.590;2022-08-02T04:31:19;4.57;;;3.53;;
20144;SDS011;10233;50.814;6.590;2022-08-02T04:32:21;5.80;;;3.58;;
20144;SDS011;10233;50.814;6.590;2022-08-02T04:33:22;5.25;;;3.60;;
20144;SDS011;10233;50.814;6.590;2022-08-02T04:34:23;4.80;;;3.25;;
20144;SDS011;10233;50.814;6.590;2022-08-02T04:35:24;6.63;;;3.60;;
20144;SDS011;10233;50.814;6.590;2022-08-02T04:36:25;5.20;;;3.40;;
20144;SDS011;10233;50.814;6.590;2022-08-02T04:37:26;7.47;;;3.60;;
20144;SDS011;10233;50.814;6.590;2022-08-02T04:38:27;4.63;;;3.22;;
20144;SDS011;10233;50.814;6.590;2022-08-02T04:39:28;5.50;;;3.37;;
20144;SDS011;10233;50.814;6.590;2022-08-02T04:40:28;5.43;;;3.33;;
20144;SDS011;10233;50.814;6.590;2022-08-02T04:41:35;4.63;;;3.30;;
20144;SDS011;10233;50.814;6.590;2022-08-02T04:42:46;6.22;;;3.75;;
20144;SDS011;10233;50.814;6.590;2022-08-02T04:43:47;6.00;;;3.53;;
20144;SDS011;10233;50.814;6.590;2022-08-02T04:44:48;6.87;;;3.70;;
20144;SDS011;10233;50.814;6.590;2022-08-02T04:45:50;4.47;;;3.47;;
20144;SDS011;10233;50.814;6.590;2022-08-02T04:46:51;4.38;;;3.10;;
20144;SDS011;10233;50.814;6.590;2022-08-02T04:47:53;5.53;;;3.28;;
20144;SDS011;10233;50.814;6.590;2022-08-02T04:48:54;7.10;;;3.43;;
20144;SDS011;10233;50.814;6.590;2022-08-02T04:49:54;4.53;;;3.28;;
20144;SDS011;10233;50.814;6.590;2022-08-02T04:50:55;6.30;;;3.37;;
20144;SDS011;10233;50.814;6.590;2022-08-02T04:51:55;6.10;;;3.47;;
20144;SDS011;10233;50.814;6.590;2022-08-02T04:52:56;4.40;;;2.80;;
20144;SDS011;10233;50.814;6.590;2022-08-02T04:53:56;4.05;;;3.30;;
20144;SDS011;10233;50.814;6.590;2022-08-02T04:54:57;5.07;;;3.30;;
20144;SDS011;10233;50.814;6.590;2022-08-02T04:55:57;5.85;;;3.60;;
20144;SDS011;10233;50.814;6.590;2022-08-02T04:56:58;6.70;;;3.50;;
20144;SDS011;10233;50.814;6.590;2022-08-02T04:57:58;6.93;;;3.80;;
20144;SDS011;10233;50.814;6.590;2022-08-02T04:58:59;7.00;;;3.47;;
20144;SDS011;10233;50.814;6.590;2022-08-02T04:59:59;4.30;;;3.30;;
20144;SDS011;10233;50.814;6.590;2022-08-02T05:01:00;4.18;;;3.20;;
20144;SDS011;10233;50.814;6.590;2022-08-02T05:02:01;5.97;;;3.50;;
20144;SDS011;10233;50.814;6.590;2022-08-02T05:03:01;5.18;;;3.38;;
20144;SDS011;10233;50.814;6.590;2022-08-02T05:04:02;6.43;;;3.20;;
20144;SDS011;10233;50.814;6.590;2022-08-02T05:05:03;5.35;;;3.40;;
20144;SDS011;10233;50.814;6.590;2022-08-02T05:06:04;4.90;;;3.45;;
20144;SDS011;10233;50.814;6.590;2022-08-02T05:07:04;7.33;;;3.60;;
20144;SDS011;10233;50.814;6.590;2022-08-02T05:08:08;5.43;;;3.30;;
20144;SDS011;10233;50.814;6.590;2022-08-02T05:09:08;4.43;;;3.27;;
20144;SDS011;10233;50.814;6.590;2022-08-02T05:10:09;6.35;;;3.50;;
20144;SDS011;10233;50.814;6.590;2022-08-02T05:11:10;6.03;;;3.97;;
20144;SDS011;10233;50.814;6.590;2022-08-02T05:12:11;5.10;;;3.37;;
20144;SDS011;10233;50.814;6.590;2022-08-02T05:13:11;5.60;;;3.47;;
20144;SDS011;10233;50.814;6.590;2022-08-02T05:14:11;4.53;;;3.30;;
20144;SDS011;10233;50.814;6.590;2022-08-02T05:15:12;6.57;;;3.50;;
20144;SDS011;10233;50.814;6.590;2022-08-02T05:16:15;4.15;;;2.90;;
20144;SDS011;10233;50.814;6.590;2022-08-02T05:17:16;5.37;;;3.50;;
20144;SDS011;10233;50.814;6.590;2022-08-02T05:18:35;5.88;;;3.55;;
20144;SDS011;10233;50.814;6.590;2022-08-02T05:19:35;4.03;;;3.20;;
20144;SDS011;10233;50.814;6.590;2022-08-02T05:20:36;5.60;;;3.42;;
20144;SDS011;10233;50.814;6.590;2022-08-02T05:21:36;4.47;;;3.00;;
20144;SDS011;10233;50.814;6.590;2022-08-02T05:22:37;4.65;;;2.92;;
20144;SDS011;10233;50.814;6.590;2022-08-02T05:23:37;7.70;;;3.43;;
20144;SDS011;10233;50.814;6.590;2022-08-02T05:24:38;6.77;;;3.50;;
20144;SDS011;10233;50.814;6.590;2022-08-02T05:25:41;4.32;;;3.17;;
20144;SDS011;10233;50.814;6.590;2022-08-02T05:26:41;4.57;;;3.27;;
20144;SDS011;10233;50.814;6.590;2022-08-02T05:27:41;4.40;;;3.15;;
20144;SDS011;10233;50.814;6.590;2022-08-02T05:28:42;5.33;;;2.90;;
20144;SDS011;10233;50.814;6.590;2022-08-02T05:29:42;3.70;;;2.90;;
20144;SDS011;10233;50.814;6.590;2022-08-02T05:30:43;5.40;;;3.40;;
20144;SDS011;10233;50.814;6.590;2022-08-02T05:31:43;4.95;;;3.17;;
20144;SDS011;10233;50.814;6.590;2022-08-02T05:32:45;5.32;;;3.22;;
20144;SDS011;10233;50.814;6.590;2022-08-02T05:33:51;4.28;;;3.08;;
20144;SDS011;10233;50.814;6.590;2022-08-02T05:34:52;3.87;;;3.03;;
20144;SDS011;10233;50.814;6.590;2022-08-02T05:35:52;5.50;;;2.80;;
20144;SDS011;10233;50.814;6.590;2022-08-02T05:36:53;3.10;;;2.80;;
20144;SDS011;10233;50.814;6.590;2022-08-02T05:37:57;4.32;;;2.97;;
20144;SDS011;10233;50.814;6.590;2022-08-02T05:38:57;5.18;;;2.80;;
20144;SDS011;10233;50.814;6.590;2022-08-02T05:39:58;4.10;;;2.93;;
20144;SDS011;10233;50.814;6.590;2022-08-02T05:40:59;3.95;;;2.70;;
20144;SDS011;10233;50.814;6.590;2022-08-02T05:41:59;3.70;;;2.53;;
20144;SDS011;10233;50.814;6.590;2022-08-02T05:43:00;3.80;;;3.00;;
20144;SDS011;10233;50.814;6.590;2022-08-02T05:44:01;4.90;;;2.73;;
20144;SDS011;10233;50.814;6.590;2022-08-02T05:45:02;6.87;;;2.87;;
20144;SDS011;10233;50.814;6.590;2022-08-02T05:46:03;5.63;;;3.10;;
20144;SDS011;10233;50.814;6.590;2022-08-02T05:47:04;4.47;;;2.78;;
20144;SDS011;10233;50.814;6.590;2022-08-02T05:48:04;4.40;;;2.72;;
20144;SDS011;10233;50.814;6.590;2022-08-02T05:49:05;4.35;;;2.60;;
20144;SDS011;10233;50.814;6.590;2022-08-02T05:50:06;3.53;;;2.80;;
20144;SDS011;10233;50.814;6.590;2022-08-02T05:51:12;5.32;;;2.60;;
20144;SDS011;10233;50.814;6.590;2022-08-02T05:52:38;3.58;;;2.70;;
20144;SDS011;10233;50.814;6.590;2022-08-02T05:53:47;4.13;;;2.80;;
20144;SDS011;10233;50.814;6.590;2022-08-02T05:54:56;5.03;;;2.95;;
20144;SDS011;10233;50.814;6.590;2022-08-02T05:59:23;3.65;;;2.63;;
20144;SDS011;10233;50.814;6.590;2022-08-02T06:00:31;5.43;;;2.60;;
20144;SDS011;10233;50.814;6.590;2022-08-02T06:01:36;4.13;;;2.70;;
20144;SDS011;10233;50.814;6.590;2022-08-02T06:02:43;6.32;;;2.60;;
20144;SDS011;10233;50.814;6.590;2022-08-02T06:03:58;4.88;;;2.65;;
20144;SDS011;10233;50.814;6.590;2022-08-02T06:05:19;2.97;;;2.50;;
20144;SDS011;10233;50.814;6.590;2022-08-02T06:06:20;3.37;;;2.73;;
20144;SDS011;10233;50.814;6.590;2022-08-02T06:07:24;3.50;;;2.65;;
20144;SDS011;10233;50.814;6.590;2022-08-02T06:08:30;5.60;;;2.60;;
20144;SDS011;10233;50.814;6.590;2022-08-02T06:09:45;3.65;;;2.65;;
20144;SDS011;10233;50.814;6.590;2022-08-02T06:10:48;3.33;;;2.55;;
20144;SDS011;10233;50.814;6.590;2022-08-02T06:11:51;5.38;;;2.95;;
20144;SDS011;10233;50.814;6.590;2022-08-02T06:14:06;4.00;;;2.40;;
20144;SDS011;10233;50.814;6.590;2022-08-02T06:15:07;2.80;;;2.33;;
20144;SDS011;10233;50.814;6.590;2022-08-02T06:16:08;2.83;;;2.40;;
20144;SDS011;10233;50.814;6.590;2022-08-02T06:17:09;4.80;;;2.77;;
20144;SDS011;10233;50.814;6.590;2022-08-02T06:18:10;4.60;;;2.53;;
20144;SDS011;10233;50.814;6.590;2022-08-02T06:19:11;4.30;;;2.40;;
20144;SDS011;10233;50.814;6.590;2022-08-02T06:20:14;2.83;;;2.50;;
20144;SDS011;10233;50.814;6.590;2022-08-02T06:21:15;4.00;;;2.42;;
20144;SDS011;10233;50.814;6.590;2022-08-02T06:22:16;3.67;;;2.53;;
20144;SDS011;10233;50.814;6.590;2022-08-02T06:23:17;4.35;;;2.58;;
20144;SDS011;10233;50.814;6.590;2022-08-02T06:24:22;4.90;;;2.67;;
20144;SDS011;10233;50.814;6.590;2022-08-02T06:25:24;5.82;;;2.70;;
20144;SDS011;10233;50.814;6.590;2022-08-02T06:26:26;4.55;;;2.70;;
20144;SDS011;10233;50.814;6.590;2022-08-02T06:27:27;4.03;;;2.58;;
20144;SDS011;10233;50.814;6.590;2022-08-02T06:28:29;6.25;;;2.67;;
20144;SDS011;10233;50.814;6.590;2022-08-02T06:29:30;4.72;;;2.53;;
20144;SDS011;10233;50.814;6.590;2022-08-02T06:30:32;4.78;;;2.63;;